Time;durP1;ratioP1;P1;durP2;ratioP2;P2;SDS_P1;SDS_P2;PMS_P1;PMS_P2;Temp;Humidity;BMP_temperature;BMP_pressure;BME280_temperature;BME280_humidity;BME280_pressure;Samples;Min_cycle;Max_cycle;Signal;HPM_P1;HPM_P2
2024/01/18 00:02:17;;;;;;;32.45;22.70;;;;;;;-2.02;100.00;99208.34;5082268;28;20035;-76
2024/01/18 00:04:43;;;;;;;31.85;22.08;;;;;;;-2.05;100.00;99209.13;5082981;28;20078;-76
2024/01/18 00:07:08;;;;;;;32.08;22.55;;;;;;;-2.02;100.00;99203.16;5083484;28;20122;-76
2024/01/18 00:09:33;;;;;;;32.42;22.70;;;;;;;-2.03;100.00;99209.16;5080061;28;20028;-76
2024/01/18 00:11:59;;;;;;;32.75;22.85;;;;;;;-2.03;100.00;99224.72;5084805;28;20068;-76
2024/01/18 00:14:24;;;;;;;32.63;22.83;;;;;;;-2.05;100.00;99228.94;5081451;28;20032;-76
2024/01/18 00:16:49;;;;;;;34.00;23.48;;;;;;;-2.07;100.00;99230.63;5081774;28;20080;-76
2024/01/18 00:19:15;;;;;;;33.28;23.52;;;;;;;-2.09;100.00;99222.81;5082669;28;20032;-76
2024/01/18 00:21:40;;;;;;;34.78;24.33;;;;;;;-2.07;100.00;99233.22;5081009;28;20020;-76
2024/01/18 00:24:06;;;;;;;33.28;24.00;;;;;;;-2.09;100.00;99247.84;5079653;28;20036;-76
2024/01/18 00:26:32;;;;;;;34.38;23.23;;;;;;;-2.13;100.00;99250.31;5084448;28;20035;-76
2024/01/18 00:28:57;;;;;;;33.58;23.60;;;;;;;-2.15;100.00;99245.94;5080943;28;20502;-76
2024/01/18 00:31:23;;;;;;;32.17;22.30;;;;;;;-2.16;100.00;99245.03;5084169;28;20032;-76
2024/01/18 00:33:48;;;;;;;31.88;23.00;;;;;;;-2.13;100.00;99239.09;5081956;28;20025;-76
2024/01/18 00:36:13;;;;;;;32.65;22.77;;;;;;;-2.12;100.00;99239.13;5082640;28;20494;-77
2024/01/18 00:38:39;;;;;;;32.20;23.13;;;;;;;-2.16;100.00;99246.78;5083722;28;20391;-78
2024/01/18 00:41:04;;;;;;;32.58;22.60;;;;;;;-2.16;100.00;99250.22;5081450;28;20030;-78
2024/01/18 00:43:30;;;;;;;32.45;23.13;;;;;;;-2.15;100.00;99258.91;5084802;28;20115;-78
2024/01/18 00:45:55;;;;;;;32.50;22.35;;;;;;;-2.17;100.00;99251.09;5081431;28;20036;-78
2024/01/18 00:48:21;;;;;;;31.50;22.42;;;;;;;-2.18;100.00;99253.63;5083708;28;20077;-79
2024/01/18 00:50:46;;;;;;;32.75;22.88;;;;;;;-2.18;100.00;99251.03;5082407;28;20448;-79
2024/01/18 00:53:11;;;;;;;32.28;23.15;;;;;;;-2.19;100.00;99260.50;5082853;28;20041;-79
2024/01/18 00:55:37;;;;;;;32.13;22.38;;;;;;;-2.19;100.00;99270.84;5083503;28;20371;-79
2024/01/18 00:58:02;;;;;;;32.80;22.65;;;;;;;-2.22;100.00;99263.00;5081117;28;20074;-78
2024/01/18 01:00:28;;;;;;;32.00;22.85;;;;;;;-2.27;100.00;99262.00;5084157;28;20024;-79
2024/01/18 01:02:53;;;;;;;31.70;22.48;;;;;;;-2.32;100.00;99269.59;5082829;28;20093;-78
2024/01/18 01:05:19;;;;;;;33.58;23.75;;;;;;;-2.30;100.00;99274.81;5080976;28;20024;-78
2024/01/18 01:07:44;;;;;;;33.25;22.95;;;;;;;-2.32;100.00;99276.50;5083928;28;20036;-79
2024/01/18 01:10:10;;;;;;;34.05;22.77;;;;;;;-2.37;100.00;99278.06;5081817;28;20060;-78
2024/01/18 01:12:35;;;;;;;33.45;23.55;;;;;;;-2.40;100.00;99280.53;5082874;28;20364;-77
2024/01/18 01:15:01;;;;;;;31.95;23.45;;;;;;;-2.39;100.00;99279.72;5083022;28;20528;-78
2024/01/18 01:17:26;;;;;;;32.30;23.00;;;;;;;-2.36;100.00;99280.72;5081112;28;20470;-77
2024/01/18 01:19:51;;;;;;;32.90;22.50;;;;;;;-2.37;100.00;99272.91;5084434;28;20375;-76
2024/01/18 01:22:17;;;;;;;34.38;23.70;;;;;;;-2.34;100.00;99276.44;5080498;28;20024;-76
2024/01/18 01:24:42;;;;;;;33.15;22.85;;;;;;;-2.33;100.00;99285.09;5082023;28;20024;-76
2024/01/18 01:27:08;;;;;;;33.22;24.15;;;;;;;-2.32;100.00;99289.44;5081966;28;20028;-77
2024/01/18 01:29:34;;;;;;;33.47;23.92;;;;;;;-2.33;100.00;99288.56;5085605;28;20024;-76
2024/01/18 01:31:59;;;;;;;33.30;23.77;;;;;;;-2.35;100.00;99287.63;5085849;28;20033;-77
2024/01/18 01:34:25;;;;;;;33.55;23.13;;;;;;;-2.41;100.00;99297.78;5086323;28;20154;-78
2024/01/18 01:36:51;;;;;;;32.67;23.80;;;;;;;-2.50;100.00;99295.78;5084521;28;20056;-77
2024/01/18 01:39:17;;;;;;;35.60;24.52;;;;;;;-2.47;100.00;99302.78;5084896;28;20143;-76
2024/01/18 01:41:42;;;;;;;34.67;23.92;;;;;;;-2.54;100.00;99306.88;5086246;28;20040;-77
2024/01/18 01:44:08;;;;;;;33.30;23.92;;;;;;;-2.59;100.00;99307.53;5085279;28;20034;-77
2024/01/18 01:46:33;;;;;;;35.70;24.75;;;;;;;-2.59;100.00;99311.03;5085754;28;20035;-78
2024/01/18 01:49:05;;;;;;;34.33;24.75;;;;;;;-2.60;100.00;99314.44;5086399;28;20067;-77
2024/01/18 01:51:34;;;;;;;35.05;24.58;;;;;;;-2.59;100.00;99311.03;5085060;28;20032;-77
2024/01/18 01:54:02;;;;;;;34.35;24.70;;;;;;;-2.59;100.00;99323.97;5086699;28;20020;-77
2024/01/18 01:56:27;;;;;;;33.92;24.60;;;;;;;-2.55;100.00;99312.00;5084707;28;20078;-77
2024/01/18 01:58:53;;;;;;;32.67;23.95;;;;;;;-2.57;100.00;99317.13;5087135;28;20028;-77
2024/01/18 02:01:19;;;;;;;35.55;24.08;;;;;;;-2.58;100.00;99319.66;5079612;28;20561;-77
2024/01/18 02:03:44;;;;;;;34.10;24.80;;;;;;;-2.60;100.00;99314.44;5083586;28;20038;-76
2024/01/18 02:06:10;;;;;;;32.50;23.27;;;;;;;-2.62;100.00;99316.13;5086800;28;20036;-76
2024/01/18 02:08:36;;;;;;;32.15;23.42;;;;;;;-2.63;100.00;99319.53;5087317;28;20067;-77
2024/01/18 02:11:03;;;;;;;32.05;22.88;;;;;;;-2.68;100.00;99315.88;5084785;28;20036;-77
2024/01/18 02:13:29;;;;;;;32.05;23.25;;;;;;;-2.69;100.00;99316.75;5085458;28;20032;-77
2024/01/18 02:15:55;;;;;;;34.22;24.92;;;;;;;-2.75;100.00;99321.69;5085685;28;20035;-76
2024/01/18 02:18:20;;;;;;;34.42;24.33;;;;;;;-2.76;100.00;99312.19;5084403;28;20024;-77
2024/01/18 02:20:46;;;;;;;32.72;23.85;;;;;;;-2.73;100.00;99317.47;5085811;28;20024;-77
2024/01/18 02:23:12;;;;;;;33.95;24.42;;;;;;;-2.72;100.00;99317.50;5086650;28;20081;-77
2024/01/18 02:25:37;;;;;;;32.67;24.23;;;;;;;-2.64;100.00;99315.16;5083668;28;20391;-77
2024/01/18 02:28:03;;;;;;;33.50;25.10;;;;;;;-2.59;100.00;99311.03;5085118;28;20416;-77
2024/01/18 02:30:28;;;;;;;34.55;24.55;;;;;;;-2.59;100.00;99313.63;5087698;28;20111;-77
2024/01/18 02:32:54;;;;;;;33.30;24.45;;;;;;;-2.58;100.00;99315.34;5085421;28;20025;-77
2024/01/18 02:35:20;;;;;;;33.92;24.27;;;;;;;-2.60;100.00;99311.00;5084595;28;20028;-80
2024/01/18 02:37:46;;;;;;;32.78;24.05;;;;;;;-2.65;100.00;99313.41;5086865;28;20032;-78
2024/01/18 02:40:11;;;;;;;35.33;24.30;;;;;;;-2.67;100.00;99320.25;5082112;28;20095;-76
2024/01/18 02:42:37;;;;;;;34.33;24.42;;;;;;;-2.73;100.00;99320.03;5086089;28;20032;-75
2024/01/18 02:45:03;;;;;;;33.40;24.23;;;;;;;-2.72;100.00;99324.38;5082597;28;20384;-75
2024/01/18 02:47:30;;;;;;;34.50;24.33;;;;;;;-2.70;100.00;99326.19;5084896;28;20033;-76
2024/01/18 02:49:58;;;;;;;35.35;25.05;;;;;;;-2.69;100.00;99329.69;5083176;28;20048;-76
2024/01/18 02:52:23;;;;;;;33.85;24.65;;;;;;;-2.70;100.00;99325.31;5084293;28;20027;-75
2024/01/18 02:54:48;;;;;;;34.22;24.33;;;;;;;-2.73;100.00;99326.09;5084243;28;20039;-75
2024/01/18 02:57:14;;;;;;;33.40;24.75;;;;;;;-2.70;100.00;99325.31;5082888;28;20028;-75
2024/01/18 02:59:40;;;;;;;34.20;23.98;;;;;;;-2.70;100.00;99333.09;5085968;28;20032;-76
2024/01/18 03:02:05;;;;;;;33.35;24.23;;;;;;;-2.73;100.00;99335.56;5082671;28;20024;-76
2024/01/18 03:04:31;;;;;;;32.65;23.70;;;;;;;-2.74;100.00;99337.25;5082423;28;20055;-76
2024/01/18 03:06:56;;;;;;;33.90;24.00;;;;;;;-2.77;100.00;99334.56;5083891;28;20127;-75
2024/01/18 03:09:22;;;;;;;35.05;25.40;;;;;;;-2.78;100.00;99338.00;5083293;28;20112;-76
2024/01/18 03:11:47;;;;;;;35.72;25.65;;;;;;;-2.74;100.00;99338.97;5084133;28;20024;-76
2024/01/18 03:14:13;;;;;;;34.78;24.50;;;;;;;-2.81;100.00;99343.03;5084453;28;20028;-75
2024/01/18 03:16:42;;;;;;;33.38;24.70;;;;;;;-2.83;100.00;99339.53;5082797;28;20051;-75
2024/01/18 03:19:10;;;;;;;35.25;26.02;;;;;;;-2.81;100.00;99335.28;5085327;28;20028;-75
2024/01/18 03:21:35;;;;;;;35.13;24.25;;;;;;;-2.84;100.00;99343.84;5082115;28;20056;-76
2024/01/18 03:24:00;;;;;;;33.90;24.83;;;;;;;-2.85;100.00;99349.84;5085507;28;20139;-75
2024/01/18 03:26:26;;;;;;;34.80;25.63;;;;;;;-2.84;100.00;99350.72;5082466;28;20028;-76
2024/01/18 03:28:51;;;;;;;33.83;24.98;;;;;;;-2.84;100.00;99345.53;5084346;28;20093;-75
2024/01/18 03:31:16;;;;;;;34.75;25.67;;;;;;;-2.84;100.00;99351.59;5082203;28;20024;-75
2024/01/18 03:33:42;;;;;;;35.67;24.90;;;;;;;-2.86;100.00;99349.78;5083485;28;20099;-75
2024/01/18 03:36:08;;;;;;;34.90;25.63;;;;;;;-2.92;100.00;99347.88;5083449;28;20028;-76
2024/01/18 03:38:33;;;;;;;33.53;24.58;;;;;;;-2.90;100.00;99356.53;5080585;28;20034;-75
2024/01/18 03:40:58;;;;;;;34.55;25.13;;;;;;;-2.92;100.00;99345.28;5067134;28;20028;-76
2024/01/18 03:43:24;;;;;;;34.67;24.70;;;;;;;-2.89;100.00;99347.09;5082175;28;20121;-75
2024/01/18 03:45:49;;;;;;;34.15;25.83;;;;;;;-2.95;100.00;99360.69;5083861;28;20032;-76
2024/01/18 03:48:15;;;;;;;34.72;25.05;;;;;;;-2.97;100.00;99364.94;5082186;28;20036;-76
2024/01/18 03:50:40;;;;;;;33.40;24.70;;;;;;;-2.96;100.00;99364.09;5082172;28;20029;-75
2024/01/18 03:53:05;;;;;;;34.85;25.33;;;;;;;-2.93;100.00;99364.19;5083686;28;20490;-75
2024/01/18 03:55:31;;;;;;;36.88;25.27;;;;;;;-2.92;100.00;99378.03;5081279;28;20471;-75
2024/01/18 03:57:57;;;;;;;35.80;25.45;;;;;;;-2.94;100.00;99380.56;5084457;28;20051;-75
2024/01/18 04:00:23;;;;;;;35.60;25.40;;;;;;;-2.99;100.00;99372.63;5081169;28;20020;-76
2024/01/18 04:02:48;;;;;;;34.13;25.45;;;;;;;-2.97;100.00;99375.28;5084037;28;20024;-75
2024/01/18 04:05:13;;;;;;;32.63;24.55;;;;;;;-3.02;100.00;99394.94;5082342;28;20386;-75
2024/01/18 04:07:39;;;;;;;32.80;24.75;;;;;;;-3.13;100.00;99391.97;5083456;28;20123;-75
2024/01/18 04:10:04;;;;;;;34.22;24.58;;;;;;;-3.14;100.00;99389.34;5083506;28;20024;-75
2024/01/18 04:12:30;;;;;;;35.65;25.42;;;;;;;-3.20;100.00;99385.69;5080514;28;20033;-75
2024/01/18 04:14:55;;;;;;;33.10;24.38;;;;;;;-3.25;100.00;99376.88;5083749;28;20474;-75
2024/01/18 04:17:21;;;;;;;34.00;24.75;;;;;;;-3.34;100.00;99376.53;5081215;28;20534;-75
2024/01/18 04:19:46;;;;;;;36.13;24.70;;;;;;;-3.40;100.00;99389.25;5083917;28;20028;-75
2024/01/18 04:22:12;;;;;;;33.20;24.17;;;;;;;-3.43;100.00;99381.38;5081267;28;20382;-75
2024/01/18 04:24:37;;;;;;;33.63;25.00;;;;;;;-3.47;100.00;99385.53;5081034;28;20391;-75
2024/01/18 04:27:03;;;;;;;33.70;25.27;;;;;;;-3.47;100.00;99384.69;5081077;28;20039;-75
2024/01/18 04:29:28;;;;;;;34.40;25.05;;;;;;;-3.53;100.00;99393.06;5082760;28;20044;-75
2024/01/18 04:31:54;;;;;;;35.20;25.33;;;;;;;-3.54;100.00;99399.06;5080975;28;20532;-75
2024/01/18 04:34:19;;;;;;;34.08;24.60;;;;;;;-3.64;100.00;99402.13;5084550;28;20024;-75
2024/01/18 04:36:44;;;;;;;36.13;25.95;;;;;;;-3.66;100.00;99399.47;5081628;28;20032;-75
2024/01/18 04:39:10;;;;;;;34.13;24.73;;;;;;;-3.74;100.00;99408.63;5082935;28;20029;-75
2024/01/18 04:41:35;;;;;;;33.95;25.27;;;;;;;-3.74;100.00;99406.94;5082939;28;20073;-75
2024/01/18 04:44:01;;;;;;;33.63;24.60;;;;;;;-3.81;100.00;99414.41;5081745;28;20036;-75
2024/01/18 04:46:27;;;;;;;34.92;25.13;;;;;;;-3.85;100.00;99422.00;5082753;28;20027;-75
2024/01/18 04:48:52;;;;;;;35.38;25.60;;;;;;;-3.88;100.00;99419.28;5079862;28;20032;-75
2024/01/18 04:51:20;;;;;;;34.72;24.63;;;;;;;-3.93;100.00;99430.25;5082764;28;20479;-75
2024/01/18 04:53:45;;;;;;;35.38;25.15;;;;;;;-3.91;100.00;99439.84;5081303;28;20036;-75
2024/01/18 04:56:11;;;;;;;35.10;25.73;;;;;;;-3.93;100.00;99450.91;5083043;28;20020;-75
2024/01/18 04:58:36;;;;;;;34.17;25.23;;;;;;;-4.01;100.00;99447.16;5082658;28;20109;-75
2024/01/18 05:01:02;;;;;;;34.25;24.77;;;;;;;-4.04;100.00;99447.91;5077621;28;20028;-74
2024/01/18 05:03:27;;;;;;;35.20;24.58;;;;;;;-4.03;100.00;99454.84;5084256;28;20032;-75
2024/01/18 05:05:55;;;;;;;34.20;24.92;;;;;;;-4.16;100.00;99460.34;5085232;28;20492;-75
2024/01/18 05:08:20;;;;;;;33.95;24.65;;;;;;;-4.16;100.00;99457.75;5087268;28;20377;-75
2024/01/18 05:10:46;;;;;;;34.42;25.08;;;;;;;-4.27;100.00;99465.91;5084785;28;20059;-75
2024/01/18 05:13:11;;;;;;;34.17;25.00;;;;;;;-4.29;100.00;99456.38;5087976;28;20029;-75
2024/01/18 05:15:36;;;;;;;35.05;24.90;;;;;;;-4.37;100.00;99458.59;5085664;28;20033;-75
2024/01/18 05:18:02;;;;;;;34.25;25.33;;;;;;;-4.30;100.00;99457.19;5086502;28;20029;-75
2024/01/18 05:20:27;;;;;;;36.25;25.55;;;;;;;-4.35;100.00;99451.81;5086390;28;20392;-75
2024/01/18 05:22:53;;;;;;;35.47;25.40;;;;;;;-4.42;100.00;99454.97;5085367;28;20126;-75
2024/01/18 05:25:18;;;;;;;35.38;25.17;;;;;;;-4.34;100.00;99452.69;5087392;28;20455;-75
2024/01/18 05:27:43;;;;;;;36.08;24.85;;;;;;;-4.46;100.00;99459.09;5084327;28;20036;-75
2024/01/18 05:30:09;;;;;;;33.97;24.08;;;;;;;-4.48;100.00;99460.75;5087559;28;20039;-75
2024/01/18 05:32:35;;;;;;;33.42;23.67;;;;;;;-4.61;100.00;99458.47;5084915;28;20078;-75
2024/01/18 05:35:01;;;;;;;34.47;24.73;;;;;;;-4.47;100.00;99466.78;5085851;28;20060;-75
2024/01/18 05:37:27;;;;;;;33.60;24.02;;;;;;;-4.47;100.00;99477.09;5086277;28;20479;-75
2024/01/18 05:39:52;;;;;;;34.10;23.70;;;;;;;-4.60;100.00;99478.25;5084931;28;20044;-74
2024/01/18 05:42:22;;;;;;;33.00;23.13;;;;;;;-4.62;100.00;99477.34;5086353;28;20035;-77
2024/01/18 05:44:48;;;;;;;34.53;24.27;;;;;;;-4.58;100.00;99480.09;5084811;28;20040;-76
2024/01/18 05:47:14;;;;;;;33.58;23.75;;;;;;;-4.58;100.00;99485.25;5087516;28;20028;-75
2024/01/18 05:49:39;;;;;;;34.33;23.70;;;;;;;-4.70;100.00;99495.06;5084275;28;20107;-75
2024/01/18 05:52:06;;;;;;;34.85;24.30;;;;;;;-4.77;100.00;99498.19;5086662;28;20039;-76
2024/01/18 05:54:33;;;;;;;33.35;23.15;;;;;;;-4.76;100.00;99500.81;5085290;28;20032;-76
2024/01/18 05:56:59;;;;;;;33.30;23.70;;;;;;;-4.80;100.00;99495.47;5085541;28;20021;-78
2024/01/18 05:59:25;;;;;;;33.42;23.80;;;;;;;-4.76;100.00;99507.66;5086304;28;20028;-76
2024/01/18 06:01:50;;;;;;;33.75;23.13;;;;;;;-4.82;100.00;99509.97;5083307;28;20433;-77
2024/01/18 06:04:16;;;;;;;33.42;23.23;;;;;;;-4.80;100.00;99511.81;5086080;28;20031;-75
2024/01/18 06:06:41;;;;;;;34.20;23.63;;;;;;;-4.88;100.00;99515.75;5087981;28;20077;-77
2024/01/18 06:09:06;;;;;;;33.40;23.13;;;;;;;-4.90;100.00;99509.66;5083416;28;20041;-76
2024/01/18 06:11:32;;;;;;;34.17;23.98;;;;;;;-4.94;100.00;99511.19;5087365;28;20044;-75
2024/01/18 06:13:57;;;;;;;35.25;24.77;;;;;;;-4.90;100.00;99523.41;5083763;28;20040;-76
2024/01/18 06:16:22;;;;;;;34.90;24.30;;;;;;;-4.91;100.00;99531.97;5084550;28;20459;-76
2024/01/18 06:18:48;;;;;;;33.90;23.85;;;;;;;-5.02;100.00;99530.59;5085757;28;20051;-76
2024/01/18 06:21:13;;;;;;;34.88;25.15;;;;;;;-5.01;100.00;99534.94;5087791;28;20478;-77
2024/01/18 06:23:42;;;;;;;35.03;24.77;;;;;;;-4.98;100.00;99542.81;5083516;28;20093;-76
2024/01/18 06:26:09;;;;;;;36.67;24.92;;;;;;;-5.05;100.00;99545.03;5086735;28;20383;-75
2024/01/18 06:28:34;;;;;;;33.95;24.05;;;;;;;-4.94;100.00;99551.56;5083442;28;20111;-74
2024/01/18 06:31:00;;;;;;;35.42;24.92;;;;;;;-4.95;100.00;99552.38;5086198;28;20067;-74
2024/01/18 06:33:26;;;;;;;35.40;25.52;;;;;;;-5.05;100.00;99558.81;5084068;28;20032;-74
2024/01/18 06:35:52;;;;;;;38.28;26.33;;;;;;;-5.11;100.00;99558.50;5084884;28;20056;-74
2024/01/18 06:38:20;;;;;;;36.65;26.13;;;;;;;-5.04;100.00;99565.72;5084945;28;20039;-74
2024/01/18 06:40:46;;;;;;;36.83;26.08;;;;;;;-5.10;100.00;99565.44;5084173;28;20506;-73
2024/01/18 06:43:11;;;;;;;37.47;25.35;;;;;;;-5.11;100.00;99563.66;5085532;28;20371;-73
2024/01/18 06:45:36;;;;;;;35.72;25.05;;;;;;;-5.00;100.00;99577.06;5082967;28;20024;-73
2024/01/18 06:48:02;;;;;;;38.33;26.77;;;;;;;-5.10;100.00;99573.16;5078882;28;20416;-74
2024/01/18 06:50:27;;;;;;;34.42;24.98;;;;;;;-5.18;100.00;99566.81;5067475;28;20043;-73
2024/01/18 06:52:53;;;;;;;36.15;24.88;;;;;;;-5.13;100.00;99580.75;5083812;28;20483;-74
2024/01/18 06:55:19;;;;;;;34.95;25.30;;;;;;;-5.16;100.00;99580.63;5084187;28;20037;-74
2024/01/18 06:57:50;;;;;;;34.03;24.73;;;;;;;-5.17;100.00;99586.56;5084931;28;20032;-73
2024/01/18 07:00:24;;;;;;;34.92;24.45;;;;;;;-5.07;100.00;99591.34;5082275;28;20024;-73
2024/01/18 07:02:51;;;;;;;34.17;24.38;;;;;;;-5.11;100.00;99592.00;5085462;28;20073;-74
2024/01/18 07:05:17;;;;;;;32.72;23.30;;;;;;;-5.15;100.00;99592.72;5082079;28;20040;-73
2024/01/18 07:07:42;;;;;;;31.77;22.30;;;;;;;-5.18;100.00;99603.75;5084095;28;20040;-73
2024/01/18 07:10:08;;;;;;;31.75;21.58;;;;;;;-5.16;100.00;99609.84;5084418;28;20048;-73
2024/01/18 07:12:33;;;;;;;31.33;21.85;;;;;;;-5.12;100.00;99600.59;5082756;28;20374;-73
2024/01/18 07:14:59;;;;;;;32.22;22.70;;;;;;;-5.10;100.00;99614.41;5085673;28;20089;-73
2024/01/18 07:17:28;;;;;;;32.63;21.90;;;;;;;-5.18;100.00;99610.59;5082289;28;20051;-73
2024/01/18 07:19:56;;;;;;;35.55;23.80;;;;;;;-5.12;100.00;99613.47;5085354;28;20025;-73
2024/01/18 07:22:21;;;;;;;34.47;22.33;;;;;;;-5.18;100.00;99611.47;5082274;28;20028;-73
2024/01/18 07:24:47;;;;;;;33.72;22.38;;;;;;;-5.19;100.00;99617.44;5081265;28;20038;-73
2024/01/18 07:27:12;;;;;;;34.42;21.85;;;;;;;-5.27;100.00;99614.50;5083551;28;20090;-73
2024/01/18 07:29:37;;;;;;;33.45;22.52;;;;;;;-5.20;100.00;99625.97;5084379;28;20055;-74
2024/01/18 07:32:03;;;;;;;32.45;22.50;;;;;;;-5.12;100.00;99628.94;5082689;28;20119;-73
2024/01/18 07:34:33;;;;;;;32.60;23.70;;;;;;;-5.13;100.00;99633.19;5085064;28;20031;-73
2024/01/18 07:36:59;;;;;;;32.85;21.88;;;;;;;-5.19;100.00;99639.75;5081883;28;20020;-73
2024/01/18 07:39:24;;;;;;;33.05;22.10;;;;;;;-5.14;100.00;99635.69;5084407;28;20020;-73
2024/01/18 07:41:50;;;;;;;32.53;21.45;;;;;;;-5.28;100.00;99638.50;5082047;28;20403;-73
2024/01/18 07:44:15;;;;;;;34.63;21.63;;;;;;;-5.33;100.00;99645.13;5082727;28;20033;-73
2024/01/18 07:46:40;;;;;;;30.05;20.25;;;;;;;-5.30;100.00;99653.00;5083521;28;20410;-73
2024/01/18 07:49:06;;;;;;;33.35;21.40;;;;;;;-5.27;100.00;99650.56;5082646;28;20033;-73
2024/01/18 07:51:31;;;;;;;33.70;21.10;;;;;;;-5.26;100.00;99662.66;5084456;28;20035;-73
2024/01/18 07:53:56;;;;;;;30.95;21.23;;;;;;;-5.20;100.00;99661.19;5081842;28;20090;-73
2024/01/18 07:56:22;;;;;;;33.13;20.80;;;;;;;-5.23;100.00;99676.50;5084699;28;20035;-73
2024/01/18 07:58:47;;;;;;;31.83;20.08;;;;;;;-5.29;100.00;99667.63;5082241;28;20422;-73
2024/01/18 08:01:16;;;;;;;32.10;20.50;;;;;;;-5.28;100.00;99684.00;5084038;28;20111;-73
2024/01/18 08:03:41;;;;;;;31.73;20.83;;;;;;;-5.27;100.00;99690.94;5080311;28;20040;-73
2024/01/18 08:06:07;;;;;;;32.60;21.50;;;;;;;-5.25;100.00;99690.19;5083842;28;20357;-73
2024/01/18 08:08:33;;;;;;;31.48;20.95;;;;;;;-5.18;100.00;99693.06;5081230;28;20052;-73
2024/01/18 08:10:59;;;;;;;32.40;20.50;;;;;;;-5.01;100.00;99699.94;5082671;28;20041;-73
2024/01/18 08:13:24;;;;;;;32.70;20.77;;;;;;;-4.95;100.00;99699.31;5084226;28;20035;-73
2024/01/18 08:15:50;;;;;;;32.75;20.88;;;;;;;-4.82;100.00;99696.53;5080203;28;20029;-72
2024/01/18 08:18:17;;;;;;;31.77;21.48;;;;;;;-4.76;100.00;99701.06;5076119;28;20037;-73
2024/01/18 08:20:43;;;;;;;30.80;20.45;;;;;;;-4.69;100.00;99705.72;5084279;28;20024;-73
2024/01/18 08:23:08;;;;;;;30.88;20.10;;;;;;;-4.61;100.00;99711.25;5082316;28;20028;-72
2024/01/18 08:25:33;;;;;;;34.00;20.85;;;;;;;-4.41;100.00;99707.03;5082410;28;20474;-72
2024/01/18 08:27:59;;;;;;;30.92;20.58;;;;;;;-4.25;100.00;99719.81;5082537;28;20491;-72
2024/01/18 08:30:25;;;;;;;31.13;20.45;;;;;;;-4.10;100.00;99716.16;5082460;28;20028;-73
2024/01/18 08:32:50;;;;;;;29.13;19.55;;;;;;;-3.92;100.00;99716.97;5081216;28;20115;-72
2024/01/18 08:35:16;;;;;;;29.98;20.10;;;;;;;-3.67;100.00;99736.13;5084522;28;20063;-72
2024/01/18 08:37:41;;;;;;;30.85;19.95;;;;;;;-3.43;100.00;99733.72;5080428;28;20040;-73
2024/01/18 08:40:08;;;;;;;30.45;19.23;;;;;;;-3.21;100.00;99740.69;5083505;28;20021;-74
2024/01/18 08:42:34;;;;;;;28.45;17.95;;;;;;;-2.95;100.00;99740.88;5082124;28;20085;-74
2024/01/18 08:45:00;;;;;;;29.75;18.13;;;;;;;-2.73;100.00;99741.75;5075198;28;20032;-74
2024/01/18 08:47:26;;;;;;;28.20;18.02;;;;;;;-2.48;100.00;99747.06;5080966;28;20033;-74
2024/01/18 08:49:52;;;;;;;27.42;16.98;;;;;;;-2.30;100.00;99744.34;5083555;28;20035;-75
2024/01/18 08:52:17;;;;;;;27.67;16.88;;;;;;;-2.06;100.00;99750.38;5079753;28;20464;-75
2024/01/18 08:54:43;;;;;;;26.20;16.17;;;;;;;-1.90;100.00;99751.84;5084391;28;20040;-76
2024/01/18 08:57:08;;;;;;;27.65;15.80;;;;;;;-1.69;100.00;99751.72;5079676;28;20028;-76
2024/01/18 08:59:36;;;;;;;27.08;14.57;;;;;;;-1.51;100.00;99757.59;5083172;28;20040;-76
2024/01/18 09:02:02;;;;;;;25.90;14.48;;;;;;;-1.38;100.00;99769.28;5080302;28;20028;-76
2024/01/18 09:04:27;;;;;;;26.60;14.50;;;;;;;-1.18;100.00;99764.78;5081255;28;20453;-76
2024/01/18 09:06:53;;;;;;;24.83;14.60;;;;;;;-0.95;100.00;99777.66;5082707;28;20033;-77
2024/01/18 09:09:18;;;;;;;25.70;13.80;;;;;;;-0.68;100.00;99779.38;5081259;28;20063;-76
2024/01/18 09:11:44;;;;;;;24.70;12.68;;;;;;;-0.42;100.00;99788.03;5081506;28;20024;-77
2024/01/18 09:14:09;;;;;;;25.35;12.77;;;;;;;-0.25;100.00;99783.34;5083859;28;20067;-76
2024/01/18 09:16:34;;;;;;;25.83;12.82;;;;;;;-0.22;100.00;99786.03;5080842;28;20074;-76
2024/01/18 09:19:00;;;;;;;23.80;12.45;;;;;;;0.05;100.00;99783.41;5083574;28;20534;-76
2024/01/18 09:21:26;;;;;;;24.45;12.52;;;;;;;0.28;100.00;99797.09;5081412;28;20373;-76
2024/01/18 09:23:51;;;;;;;24.98;12.98;;;;;;;0.43;100.00;99803.56;5074181;28;20040;-76
2024/01/18 09:26:17;;;;;;;23.92;12.55;;;;;;;0.72;100.00;99795.69;5073672;28;20074;-76
2024/01/18 09:28:43;;;;;;;24.23;12.40;;;;;;;0.72;100.00;99806.97;5079083;28;20433;-76
2024/01/18 09:31:09;;;;;;;22.20;12.02;;;;;;;0.96;100.00;99811.97;5081422;28;20036;-79
2024/01/18 09:33:37;;;;;;;24.23;11.82;;;;;;;1.16;100.00;99814.22;5083331;28;20032;-77
2024/01/18 09:36:03;;;;;;;22.77;10.93;;;;;;;1.30;100.00;99817.19;5081877;28;20077;-78
2024/01/18 09:38:29;;;;;;;22.20;10.75;;;;;;;1.60;100.00;99831.81;5082661;28;20029;-79
2024/01/18 09:41:04;;;;;;;23.38;10.70;;;;;;;1.88;100.00;99841.19;5082248;28;20406;-79
2024/01/18 09:43:35;;;;;;;22.73;10.55;;;;;;;2.06;100.00;99846.78;5082593;28;20032;-79
2024/01/18 09:46:06;;;;;;;25.38;9.80;;;;;;;2.30;100.00;99847.31;5082825;28;20119;-79
2024/01/18 09:48:35;;;;;;;22.17;9.40;;;;;;;2.52;100.00;99857.38;5085733;28;20026;-80
2024/01/18 09:51:01;;;;;;;21.83;9.45;;;;;;;2.84;100.00;99854.56;5086829;28;20070;-80
2024/01/18 09:53:31;;;;;;;21.92;9.35;;;;;;;2.94;100.00;99869.53;5086618;28;20471;-81
2024/01/18 09:56:03;;;;;;;22.15;9.85;;;;;;;3.21;100.00;99867.44;5084797;28;20028;-80
2024/01/18 09:58:29;;;;;;;21.13;9.15;;;;;;;3.58;100.00;99870.69;5085838;28;20475;-82
2024/01/18 10:00:58;;;;;;;20.58;8.98;;;;;;;3.89;100.00;99877.31;5086737;28;20090;-85
2024/01/18 10:03:24;;;;;;;19.75;7.90;;;;;;;4.11;100.00;99886.38;5084531;28;20608;-83
2024/01/18 10:05:49;;;;;;;20.80;8.32;;;;;;;4.27;100.00;99889.25;5084163;28;20487;-82
2024/01/18 10:08:15;;;;;;;20.15;8.00;;;;;;;4.39;100.00;99886.78;5084716;28;20119;-82
2024/01/18 10:10:42;;;;;;;19.40;7.68;;;;;;;4.85;100.00;99899.63;5086005;28;20040;-82
2024/01/18 10:13:10;;;;;;;19.63;7.65;;;;;;;5.11;100.00;99905.19;5085313;28;20075;-82
2024/01/18 10:15:36;;;;;;;20.70;7.40;;;;;;;5.48;100.00;99915.19;5080588;28;20491;-81
2024/01/18 10:18:05;;;;;;;20.80;7.70;;;;;;;5.68;100.00;99917.97;5076976;28;20049;-81
2024/01/18 10:20:31;;;;;;;19.75;7.43;;;;;;;5.86;100.00;99922.53;5078589;28;20031;-80
2024/01/18 10:22:58;;;;;;;18.85;6.88;;;;;;;6.40;100.00;99926.47;5075078;28;20075;-81
2024/01/18 10:25:27;;;;;;;19.48;6.82;;;;;;;6.83;100.00;99923.22;5076085;28;20021;-80
2024/01/18 10:27:56;;;;;;;19.45;6.65;;;;;;;6.98;100.00;99927.69;5077404;28;20032;-80
2024/01/18 10:30:22;;;;;;;20.05;6.60;;;;;;;7.49;100.00;99935.75;5076084;28;20027;-81
2024/01/18 10:32:48;;;;;;;18.00;5.95;;;;;;;7.78;100.00;99940.19;5081593;28;20030;-81
2024/01/18 10:35:24;;;;;;;18.15;5.97;;;;;;;7.98;100.00;99937.53;5082895;28;20028;-81
2024/01/18 10:38:04;;;;;;;18.10;6.25;;;;;;;8.42;100.00;99943.69;5079768;28;20036;-81
2024/01/18 10:40:31;;;;;;;19.10;5.53;;;;;;;8.51;100.00;99946.34;5082112;28;20463;-81
2024/01/18 10:42:57;;;;;;;17.48;5.43;;;;;;;8.51;100.00;99948.97;5086266;28;20479;-80
2024/01/18 10:45:23;;;;;;;16.40;5.10;;;;;;;8.81;100.00;99941.88;5084115;28;20041;-82
2024/01/18 10:47:48;;;;;;;16.52;5.10;;;;;;;9.33;100.00;99944.31;5083225;28;20440;-81
2024/01/18 10:50:14;;;;;;;19.05;5.53;;;;;;;9.55;100.00;99945.09;5083837;28;20024;-80
2024/01/18 10:52:40;;;;;;;18.92;5.50;;;;;;;9.66;100.00;99950.31;5085737;28;20094;-78
2024/01/18 10:55:08;;;;;;;18.10;5.20;;;;;;;9.84;100.00;99956.34;5084602;28;20036;-79
2024/01/18 10:57:34;;;;;;;15.57;4.90;;;;;;;10.21;100.00;99948.16;5087585;28;20028;-79
2024/01/18 10:59:59;;;;;;;17.17;5.22;;;;;;;10.56;100.00;99953.16;5084255;28;20043;-79
2024/01/18 11:02:25;;;;;;;16.70;5.00;;;;;;;10.75;100.00;99960.91;5082466;28;20180;-79
2024/01/18 11:04:54;;;;;;;17.83;5.30;;;;;;;10.81;100.00;99966.13;5082684;28;20432;-79
2024/01/18 11:07:20;;;;;;;17.30;4.50;;;;;;;10.62;100.00;99974.22;5085941;28;20039;-79